Ferme-Neuve, Canada
Current Conditions -  °F | °C
As of 7:00 AM on Saturday 25 Oct 2014 (Local Time) from CYND Reporting Station
Few Clouds Few Clouds  
Wind Chill:   Ceiling: Unl
Heat Index:   Visibility: 15mi
Dew Point:   Wind: 2mph
Humidity: 93%   Direction: 310°NW
Pressure: 29.76"   Gusts: NA
Location:  46.7°N, 75.45°W
Report Text: CYND 251100Z 31002KT 15SM FEW040 01/00 A2976 RMK SC2 SLP079
Loading
Personal Weather Stations






























Interactive Weather Map
Tropical Storm Tracking
New forecast layout! Learn more

10-Day Weather Forecast

Advertisements
Track Severe Weather on mobile